Haugan, MT (59842)

12:32 AM MDT on August 30, 2014 (GMT -0600)
NonFedAWOS THOMPSON FALLS MT US SUPERAWOS | Change Station
CLOSE
Current Station
Personal Weather Station
Location: Thompson Falls, MT
Elevation: 2466 ft
Nearby Weather Stations

Elev 2466 ft 47.57 °N, 115.28 °W | Updated 37 minutes ago

Overcast
Overcast
64 °F
Feels Like 64 °F
N
0
Wind Variable Wind from North
Gusts 0.0 mph

Today
High -- | Low -- °F
--% Chance of Precip.
Yesterday
High -- | Low -- °F
Precip. -- in
6:57 AM 8:25 PM
Waxing Crescent, 19% visible
Pressure 29.78 in
Visibility 10.0 miles
Clouds Mostly Cloudy 12000 ft
Dew Point 37 °F
Humidity 37%
Rainfall -999.00 in
Snow Depth Not available.
UV 0 out of 12
Pollen 7.80 out of 12
Air Quality Not available.
Flu Activity Not available.
METAR KMSO 300553Z 34007KT 10SM BKN120 22/01 A2985 RMK AO2 SLP085 T02220011 10300 20200 53009

More Conditions Fewer Conditions

Pressure 29.78 in
Visibility 10.0 miles
Clouds Mostly Cloudy 12000 ft
Dew Point 37 °F
Humidity 37%
Rainfall -999.00 in
Snow Depth Not available.
UV 0 out of 12
Pollen 7.80 out of 12
Air Quality Not available.
Flu Activity Not available.
METAR KMSO 300553Z 34007KT 10SM BKN120 22/01 A2985 RMK AO2 SLP085 T02220011 10300 20200 53009

More Conditions Fewer Conditions

10-Day Weather Forecast

Almanac

Astronomy

Aug. 30, 2014 Rise Set
Actual Time 6:57 AM MDT 8:25 PM MDT
Civil Twilight 6:25 AM MDT 8:57 PM MDT
Nautical Twilight 5:47 AM MDT 9:35 PM MDT
Astronomical Twilight 5:05 AM MDT 10:17 PM MDT
Moon 12:11 PM MDT 10:39 PM MDT
Length of Visible Light 14h 31m
Length of Day
13h 27m
Tomorrow will be 3m 17s shorter.
Waxing Crescent, 19% of the Moon is Illuminated
Today
Waxing Crescent
Sep 2
First Quarter
Sep 8
Full
Sep 15
Last Quarter
Sep 24
New

Today's Extremes

State Highs State Lows

Community

WunderPhotos

Upload Photos

1,748,460 photos uploaded!

Nearby

Snow Depth

Station Depth Elevation
Stuart Mountain 0 in 7400 ft
Kraft Creek 0 in 4750 ft
Banfield Mountain 0 in 5600 ft
Twelvemile Creek 0 in 5600 ft
Emery Creek 0 in 4350 ft

Earthquake Activity

City Distance Mag. Time & Date
No recent earthquake activity has been reported nearby.
Minimum magnitude displayed is 2.5.

Coastal Water Temperatures

Place Temperature
No Stations Reporting

Nearby Weather Stations